Terminal Aerodrome Forecast
Issued by NWS Twin Cities, MN

Home | Current Version | Previous Version | Text Only | Print | Product List | Glossary On
Versions: 1 2 3 4 5 6 7 8 9 10 11 12 13 14 15
000
FTUS43 KMPX 192343 CCA
TAFEAU
TAF COR
KEAU 192343Z 2000/2024 30005KT 5SM -RA OVC015
      TEMPO 2003/2006 3SM RA BR OVC010
     FM200900 31014KT P6SM BKN030 BKN070
     FM201100 31018G28KT P6SM BKN035
     FM202000 30023G33KT P6SM BKN035 OVC050=

USA.gov is the U.S. government's official web portal to all federal, state and local government web resources and services.